Atlantic - Newfoundland: Past 24 Hour Conditions

 

Grand Étang

02:00 PM ADT 28 August 2015
Disclaimer

This table is a summary of hourly weather conditions for the past 24 hours.
Please note that these observations might not always be representative of weather conditions over their associated marine area.

Date / Time
(ADT)
Wind(knots) Conditions Visibility(km) Pressure(kPa) Air tempC) Relative humidity(%) Dew pointC) Humidex
28 August 2015
14:00 W 15 N/A N/A 101.4 21 79 17 26
13:00 WSW 13 N/A N/A 101.4 21 80 17 26
12:00 WSW 16 N/A N/A 101.4 20 82 17 26
11:00 WSW 15 N/A N/A 101.3 21 84 18 26
10:00 WSW 14 N/A N/A 101.2 20 86 18 26
9:00 WSW 14 N/A N/A 101.2 21 85 18 27
8:00 W 13 N/A N/A 101.1 21 82 17 26
7:00 W 14 N/A N/A 101.1 20 91 18 26
6:00 WSW 17 N/A N/A 101.0 20 89 18 26
5:00 W 13 N/A N/A 100.9 20 85 18 26
4:00 WSW 14 N/A N/A 100.9 20 87 18 *
3:00 SW 12 N/A N/A 100.9 21 88 19 27
2:00 WSW 13 gust 18 N/A N/A 100.9 20 87 18 27
1:00 SSW 7 N/A N/A 100.9 21 89 19 27
0:00 S 8 N/A N/A 100.9 20 87 18 27
27 August 2015
23:00 SSE 8 N/A N/A 100.9 20 84 18 26
22:00 SE 10 gust 15 N/A N/A 100.9 20 86 17 *
21:00 ESE 19 gust 25 N/A N/A 100.8 19 84 17 *
20:00 ESE 18 gust 28 N/A N/A 100.8 20 83 17 *
19:00 ESE 19 gust 34 N/A N/A 100.9 19 85 17 *
18:00 ESE 19 gust 31 N/A N/A 101.0 19 85 17 *
17:00 SSW 6 N/A N/A 101.1 19 83 16 *
16:00 SE 16 gust 33 N/A N/A 101.1 21 66 15 25
15:00 ESE 19 gust 30 N/A N/A 101.1 23 61 15 27
14:00 ESE 23 gust 36 N/A N/A 101.2 24 55 14 27

Zoom-in to make a selection

Map of Atlantic - Newfoundland marine weather areas Southwestern Grand Banks - 44138 Banquereau - 44139 Tail of the Bank - 44140 Nickerson Bank - 44251 Northeast Burgeo Bank - 44255 Blanc-Sablon Airport Cap Whittle Chevery Natashquan Airport Heath Point Miscou Island Grand Étang Ingonish Beach North Mountain St.Paul Island J.A. Douglas McCurdy Sydney Airport Charlottetown Airport East Point North Cape Argentia Bonavista Burgeo Cape Race Corner Brook Daniel's Harbour Englee Ferolle Point La Scie Port aux Basques Rocky Harbour Sagona Island St. Anthony Airport St. John's Int'l Airport St. Lawrence Stephenville Airport Twillingate Winterland Wreckhouse Cartwright Airport Mary's Harbour Grates Cove Pool's Island Marticot Island Long Pond Eskasoni (First Nations) Îles de la Madeleine Airport
Legend:
buoy Buoy
land station Land Station

Atlantic - Newfoundland Area

Another Region

What we are doing

Date modified: